sensor_id;sensor_type;location;lat;lon;timestamp;pressure;altitude;pressure_sealevel;temperature;humidity
70954;BME280;58618;47.490;8.736;2022-10-16T00:02:12;96557.94;;;12.38;100.00
70954;BME280;58618;47.490;8.736;2022-10-16T00:04:59;96552.69;;;12.43;100.00
70954;BME280;58618;47.490;8.736;2022-10-16T00:07:47;96552.22;;;12.41;100.00
70954;BME280;58618;47.490;8.736;2022-10-16T00:10:35;96552.69;;;12.43;100.00
70954;BME280;58618;47.490;8.736;2022-10-16T00:13:22;96549.28;;;12.28;100.00
70954;BME280;58618;47.490;8.736;2022-10-16T00:16:10;96552.09;;;12.13;100.00
70954;BME280;58618;47.490;8.736;2022-10-16T00:18:59;96535.47;;;12.19;100.00
70954;BME280;58618;47.490;8.736;2022-10-16T00:21:47;96551.25;;;12.37;100.00
70954;BME280;58618;47.490;8.736;2022-10-16T00:24:34;96547.38;;;12.34;100.00
70954;BME280;58618;47.490;8.736;2022-10-16T00:27:22;96545.81;;;12.19;100.00
70954;BME280;58618;47.490;8.736;2022-10-16T00:30:09;96539.09;;;12.18;100.00
70954;BME280;58618;47.490;8.736;2022-10-16T00:32:57;96542.50;;;12.33;100.00
70954;BME280;58618;47.490;8.736;2022-10-16T00:35:46;96543.41;;;12.42;100.00
70954;BME280;58618;47.490;8.736;2022-10-16T00:38:34;96548.56;;;12.42;100.00
70954;BME280;58618;47.490;8.736;2022-10-16T00:41:23;96551.63;;;12.44;100.00
70954;BME280;58618;47.490;8.736;2022-10-16T00:44:43;96555.69;;;12.50;100.00
70954;BME280;58618;47.490;8.736;2022-10-16T00:47:34;96563.38;;;12.55;100.00
70954;BME280;58618;47.490;8.736;2022-10-16T00:50:26;96568.72;;;12.58;100.00
70954;BME280;58618;47.490;8.736;2022-10-16T00:53:16;96568.97;;;12.62;100.00
70954;BME280;58618;47.490;8.736;2022-10-16T00:56:04;96567.91;;;12.63;100.00
70954;BME280;58618;47.490;8.736;2022-10-16T00:58:52;96561.75;;;12.59;100.00
70954;BME280;58618;47.490;8.736;2022-10-16T01:01:40;96565.31;;;12.63;100.00
70954;BME280;58618;47.490;8.736;2022-10-16T01:04:30;96573.78;;;12.68;100.00
70954;BME280;58618;47.490;8.736;2022-10-16T01:07:27;96526.34;;;12.41;100.00
70954;BME280;58618;47.490;8.736;2022-10-16T01:10:26;96566.59;;;12.47;100.00
70954;BME280;58618;47.490;8.736;2022-10-16T01:13:19;96566.81;;;12.50;100.00
70954;BME280;58618;47.490;8.736;2022-10-16T01:16:11;96554.03;;;12.21;100.00
70954;BME280;58618;47.490;8.736;2022-10-16T01:19:04;96551.59;;;12.11;100.00
70954;BME280;58618;47.490;8.736;2022-10-16T01:21:56;96564.66;;;12.39;100.00
70954;BME280;58618;47.490;8.736;2022-10-16T01:24:48;96568.56;;;12.17;100.00
70954;BME280;58618;47.490;8.736;2022-10-16T01:27:40;96569.44;;;12.32;100.00
70954;BME280;58618;47.490;8.736;2022-10-16T01:30:31;96558.56;;;12.11;100.00
70954;BME280;58618;47.490;8.736;2022-10-16T01:33:21;96577.25;;;12.26;100.00
70954;BME280;58618;47.490;8.736;2022-10-16T01:36:13;96562.78;;;12.25;100.00
70954;BME280;58618;47.490;8.736;2022-10-16T01:39:02;96579.00;;;12.31;100.00
70954;BME280;58618;47.490;8.736;2022-10-16T01:41:54;96573.59;;;12.27;100.00
70954;BME280;58618;47.490;8.736;2022-10-16T01:44:48;96557.47;;;12.36;100.00
70954;BME280;58618;47.490;8.736;2022-10-16T01:47:37;96575.41;;;12.46;100.00
70954;BME280;58618;47.490;8.736;2022-10-16T01:50:26;96574.06;;;12.48;100.00
70954;BME280;58618;47.490;8.736;2022-10-16T01:53:15;96588.69;;;12.58;100.00
70954;BME280;58618;47.490;8.736;2022-10-16T01:56:06;96581.81;;;12.67;100.00
70954;BME280;58618;47.490;8.736;2022-10-16T01:58:59;96587.94;;;12.71;100.00
70954;BME280;58618;47.490;8.736;2022-10-16T02:01:51;96563.19;;;12.65;100.00
70954;BME280;58618;47.490;8.736;2022-10-16T02:04:43;96568.06;;;12.53;100.00
70954;BME280;58618;47.490;8.736;2022-10-16T02:07:31;96572.00;;;12.64;100.00
70954;BME280;58618;47.490;8.736;2022-10-16T02:10:18;96577.69;;;12.66;100.00
70954;BME280;58618;47.490;8.736;2022-10-16T02:13:09;96577.09;;;12.69;100.00
70954;BME280;58618;47.490;8.736;2022-10-16T02:15:57;96580.28;;;12.66;100.00
70954;BME280;58618;47.490;8.736;2022-10-16T02:18:46;96577.00;;;12.60;100.00
70954;BME280;58618;47.490;8.736;2022-10-16T02:21:39;96587.63;;;12.59;100.00
70954;BME280;58618;47.490;8.736;2022-10-16T02:24:32;96586.56;;;12.60;100.00
70954;BME280;58618;47.490;8.736;2022-10-16T02:27:26;96582.53;;;12.54;100.00
70954;BME280;58618;47.490;8.736;2022-10-16T02:30:20;96594.41;;;12.55;100.00
70954;BME280;58618;47.490;8.736;2022-10-16T02:33:10;96604.91;;;12.45;100.00
70954;BME280;58618;47.490;8.736;2022-10-16T02:36:01;96573.19;;;12.20;100.00
70954;BME280;58618;47.490;8.736;2022-10-16T02:38:48;96587.66;;;12.21;100.00
70954;BME280;58618;47.490;8.736;2022-10-16T02:41:36;96581.94;;;12.24;100.00
70954;BME280;58618;47.490;8.736;2022-10-16T02:44:23;96575.72;;;11.88;100.00
70954;BME280;58618;47.490;8.736;2022-10-16T02:47:11;96581.00;;;11.78;100.00
70954;BME280;58618;47.490;8.736;2022-10-16T02:49:59;96575.78;;;11.83;100.00
70954;BME280;58618;47.490;8.736;2022-10-16T02:52:47;96566.34;;;11.92;100.00
70954;BME280;58618;47.490;8.736;2022-10-16T02:55:35;96561.38;;;11.96;100.00
70954;BME280;58618;47.490;8.736;2022-10-16T02:58:22;96564.78;;;11.91;100.00
70954;BME280;58618;47.490;8.736;2022-10-16T03:01:10;96581.84;;;11.92;100.00
70954;BME280;58618;47.490;8.736;2022-10-16T03:03:58;96597.28;;;11.97;100.00
70954;BME280;58618;47.490;8.736;2022-10-16T03:06:45;96589.34;;;11.94;100.00
70954;BME280;58618;47.490;8.736;2022-10-16T03:09:34;96563.63;;;11.83;100.00
70954;BME280;58618;47.490;8.736;2022-10-16T03:12:22;96568.16;;;11.73;100.00
70954;BME280;58618;47.490;8.736;2022-10-16T03:15:09;96573.66;;;11.85;100.00
70954;BME280;58618;47.490;8.736;2022-10-16T03:17:57;96576.19;;;11.90;100.00
70954;BME280;58618;47.490;8.736;2022-10-16T03:20:45;96581.28;;;11.95;100.00
70954;BME280;58618;47.490;8.736;2022-10-16T03:23:32;96590.09;;;11.94;100.00
70954;BME280;58618;47.490;8.736;2022-10-16T03:26:21;96587.59;;;11.89;100.00
70954;BME280;58618;47.490;8.736;2022-10-16T03:29:08;96585.06;;;11.84;100.00
70954;BME280;58618;47.490;8.736;2022-10-16T03:31:56;96590.34;;;11.74;100.00
70954;BME280;58618;47.490;8.736;2022-10-16T03:34:43;96593.41;;;11.76;100.00
70954;BME280;58618;47.490;8.736;2022-10-16T03:37:30;96588.81;;;11.73;100.00
70954;BME280;58618;47.490;8.736;2022-10-16T03:40:18;96593.63;;;11.56;100.00
70954;BME280;58618;47.490;8.736;2022-10-16T03:43:07;96602.22;;;11.51;100.00
70954;BME280;58618;47.490;8.736;2022-10-16T03:45:54;96603.50;;;11.49;100.00
70954;BME280;58618;47.490;8.736;2022-10-16T03:48:41;96619.84;;;11.44;100.00
70954;BME280;58618;47.490;8.736;2022-10-16T03:51:29;96614.38;;;11.22;100.00
70954;BME280;58618;47.490;8.736;2022-10-16T03:54:16;96629.44;;;11.38;100.00
70954;BME280;58618;47.490;8.736;2022-10-16T03:57:03;96613.69;;;11.11;100.00
70954;BME280;58618;47.490;8.736;2022-10-16T03:59:52;96615.97;;;11.18;100.00
70954;BME280;58618;47.490;8.736;2022-10-16T04:02:39;96597.44;;;11.11;100.00
70954;BME280;58618;47.490;8.736;2022-10-16T04:05:27;96604.78;;;10.98;100.00
70954;BME280;58618;47.490;8.736;2022-10-16T04:08:14;96612.63;;;11.17;100.00
70954;BME280;58618;47.490;8.736;2022-10-16T04:11:02;96608.13;;;11.28;100.00
70954;BME280;58618;47.490;8.736;2022-10-16T04:13:49;96606.81;;;11.30;100.00
70954;BME280;58618;47.490;8.736;2022-10-16T04:16:38;96612.50;;;11.27;100.00
70954;BME280;58618;47.490;8.736;2022-10-16T04:19:25;96615.03;;;11.32;100.00
70954;BME280;58618;47.490;8.736;2022-10-16T04:22:13;96613.91;;;11.43;100.00
70954;BME280;58618;47.490;8.736;2022-10-16T04:25:00;96625.84;;;11.39;100.00
70954;BME280;58618;47.490;8.736;2022-10-16T04:27:47;96624.28;;;11.38;100.00
70954;BME280;58618;47.490;8.736;2022-10-16T04:30:37;96614.88;;;11.48;100.00
70954;BME280;58618;47.490;8.736;2022-10-16T04:33:26;96615.84;;;11.57;100.00
70954;BME280;58618;47.490;8.736;2022-10-16T04:36:14;96619.47;;;11.56;100.00
70954;BME280;58618;47.490;8.736;2022-10-16T04:39:01;96623.53;;;11.62;100.00
70954;BME280;58618;47.490;8.736;2022-10-16T04:41:48;96631.22;;;11.67;100.00
70954;BME280;58618;47.490;8.736;2022-10-16T04:44:36;96620.91;;;11.67;100.00
70954;BME280;58618;47.490;8.736;2022-10-16T04:47:23;96629.13;;;11.69;100.00
70954;BME280;58618;47.490;8.736;2022-10-16T04:50:12;96636.84;;;11.74;100.00
70954;BME280;58618;47.490;8.736;2022-10-16T04:52:59;96634.53;;;11.72;100.00
70954;BME280;58618;47.490;8.736;2022-10-16T04:55:47;96645.03;;;11.81;100.00
70954;BME280;58618;47.490;8.736;2022-10-16T04:58:34;96636.53;;;11.80;100.00
70954;BME280;58618;47.490;8.736;2022-10-16T05:01:21;96650.22;;;11.81;100.00
70954;BME280;58618;47.490;8.736;2022-10-16T05:04:09;96644.00;;;11.82;100.00
70954;BME280;58618;47.490;8.736;2022-10-16T05:06:58;96645.38;;;11.74;100.00
70954;BME280;58618;47.490;8.736;2022-10-16T05:09:45;96641.63;;;11.62;100.00
70954;BME280;58618;47.490;8.736;2022-10-16T05:12:32;96641.53;;;11.43;100.00
70954;BME280;58618;47.490;8.736;2022-10-16T05:15:20;96652.88;;;11.47;100.00
70954;BME280;58618;47.490;8.736;2022-10-16T05:18:10;96657.91;;;11.33;100.00
70954;BME280;58618;47.490;8.736;2022-10-16T05:20:58;96663.59;;;11.35;100.00
70954;BME280;58618;47.490;8.736;2022-10-16T05:23:46;96650.97;;;11.29;100.00
70954;BME280;58618;47.490;8.736;2022-10-16T05:26:34;96649.69;;;11.31;100.00
70954;BME280;58618;47.490;8.736;2022-10-16T05:29:21;96655.38;;;11.28;100.00
70954;BME280;58618;47.490;8.736;2022-10-16T05:32:09;96647.13;;;11.26;100.00
70954;BME280;58618;47.490;8.736;2022-10-16T05:34:56;96646.59;;;11.29;100.00
70954;BME280;58618;47.490;8.736;2022-10-16T05:37:46;96641.00;;;11.17;100.00
70954;BME280;58618;47.490;8.736;2022-10-16T05:40:35;96636.44;;;11.09;100.00
70954;BME280;58618;47.490;8.736;2022-10-16T05:43:22;96649.22;;;11.24;100.00
70954;BME280;58618;47.490;8.736;2022-10-16T05:46:10;96657.91;;;11.33;100.00
70954;BME280;58618;47.490;8.736;2022-10-16T05:48:57;96654.50;;;11.38;100.00
70954;BME280;58618;47.490;8.736;2022-10-16T05:51:44;96653.69;;;11.42;100.00
70954;BME280;58618;47.490;8.736;2022-10-16T05:54:32;96662.00;;;11.39;100.00
70954;BME280;58618;47.490;8.736;2022-10-16T05:57:21;96653.72;;;11.37;100.00
70954;BME280;58618;47.490;8.736;2022-10-16T06:00:09;96674.53;;;11.51;100.00
70954;BME280;58618;47.490;8.736;2022-10-16T06:02:57;96667.06;;;11.50;100.00
70954;BME280;58618;47.490;8.736;2022-10-16T06:05:44;96672.31;;;11.63;100.00
70954;BME280;58618;47.490;8.736;2022-10-16T06:08:32;96662.44;;;11.70;100.00
70954;BME280;58618;47.490;8.736;2022-10-16T06:11:21;96665.81;;;11.71;100.00
70954;BME280;58618;47.490;8.736;2022-10-16T06:14:10;96663.53;;;11.64;100.00
70954;BME280;58618;47.490;8.736;2022-10-16T06:16:58;96673.41;;;11.86;100.00
70954;BME280;58618;47.490;8.736;2022-10-16T06:19:45;96668.06;;;12.01;100.00
70954;BME280;58618;47.490;8.736;2022-10-16T06:22:32;96673.97;;;11.83;100.00
70954;BME280;58618;47.490;8.736;2022-10-16T06:25:20;96674.47;;;11.85;100.00
70954;BME280;58618;47.490;8.736;2022-10-16T06:28:07;96679.56;;;11.90;100.00
70954;BME280;58618;47.490;8.736;2022-10-16T06:31:00;96659.69;;;11.62;100.00
70954;BME280;58618;47.490;8.736;2022-10-16T06:33:50;96688.47;;;12.03;100.00
70954;BME280;58618;47.490;8.736;2022-10-16T06:36:39;96693.75;;;12.16;100.00
70954;BME280;58618;47.490;8.736;2022-10-16T06:39:27;96692.94;;;12.21;100.00
70954;BME280;58618;47.490;8.736;2022-10-16T06:42:14;96694.56;;;12.36;100.00
70954;BME280;58618;47.490;8.736;2022-10-16T06:45:01;96708.91;;;12.23;100.00
70954;BME280;58618;47.490;8.736;2022-10-16T06:47:50;96699.94;;;12.39;100.00
70954;BME280;58618;47.490;8.736;2022-10-16T06:50:38;96717.69;;;12.64;100.00
70954;BME280;58618;47.490;8.736;2022-10-16T06:53:26;96708.63;;;12.67;100.00
70954;BME280;58618;47.490;8.736;2022-10-16T06:56:16;96716.75;;;12.79;100.00
70954;BME280;58618;47.490;8.736;2022-10-16T06:59:04;96711.50;;;12.84;100.00
70954;BME280;58618;47.490;8.736;2022-10-16T07:01:51;96741.69;;;13.07;100.00
70954;BME280;58618;47.490;8.736;2022-10-16T07:04:40;96741.09;;;13.16;100.00
70954;BME280;58618;47.490;8.736;2022-10-16T07:07:27;96747.94;;;13.25;100.00
70954;BME280;58618;47.490;8.736;2022-10-16T07:10:14;96760.13;;;13.25;100.00
70954;BME280;58618;47.490;8.736;2022-10-16T07:13:02;96750.03;;;13.23;100.00
70954;BME280;58618;47.490;8.736;2022-10-16T07:15:49;96760.69;;;13.22;100.00
70954;BME280;58618;47.490;8.736;2022-10-16T07:18:37;96750.97;;;13.14;100.00
70954;BME280;58618;47.490;8.736;2022-10-16T07:21:29;96757.19;;;12.94;100.00
70954;BME280;58618;47.490;8.736;2022-10-16T07:24:17;96760.59;;;12.89;100.00
70954;BME280;58618;47.490;8.736;2022-10-16T07:27:04;96757.94;;;12.57;100.00
70954;BME280;58618;47.490;8.736;2022-10-16T07:29:51;96765.31;;;12.45;100.00
70954;BME280;58618;47.490;8.736;2022-10-16T07:32:39;96770.03;;;12.38;100.00
70954;BME280;58618;47.490;8.736;2022-10-16T07:35:26;96780.72;;;12.55;100.00
70954;BME280;58618;47.490;8.736;2022-10-16T07:38:15;96777.47;;;12.68;100.00
70954;BME280;58618;47.490;8.736;2022-10-16T07:41:04;96761.44;;;13.54;100.00
70954;BME280;58618;47.490;8.736;2022-10-16T07:43:52;96776.50;;;14.80;100.00
70954;BME280;58618;47.490;8.736;2022-10-16T07:46:40;96802.34;;;15.80;100.00
70954;BME280;58618;47.490;8.736;2022-10-16T07:49:28;96788.66;;;16.36;95.44
70954;BME280;58618;47.490;8.736;2022-10-16T07:52:15;96792.00;;;16.93;92.26
70954;BME280;58618;47.490;8.736;2022-10-16T07:55:04;96782.97;;;17.34;89.24
70954;BME280;58618;47.490;8.736;2022-10-16T07:57:52;96789.53;;;17.74;85.16
70954;BME280;58618;47.490;8.736;2022-10-16T08:00:39;96803.75;;;17.94;85.86
70954;BME280;58618;47.490;8.736;2022-10-16T08:03:27;96785.75;;;18.09;84.18
70954;BME280;58618;47.490;8.736;2022-10-16T08:06:14;96796.88;;;18.65;80.62
70954;BME280;58618;47.490;8.736;2022-10-16T08:09:05;96789.06;;;18.56;80.25
70954;BME280;58618;47.490;8.736;2022-10-16T08:11:54;96790.03;;;18.81;79.20
70954;BME280;58618;47.490;8.736;2022-10-16T08:14:49;96789.56;;;19.21;78.15
70954;BME280;58618;47.490;8.736;2022-10-16T08:17:36;96790.91;;;19.48;78.46
70954;BME280;58618;47.490;8.736;2022-10-16T08:20:25;96785.19;;;19.66;73.84
70954;BME280;58618;47.490;8.736;2022-10-16T08:23:13;96790.75;;;19.44;77.74
70954;BME280;58618;47.490;8.736;2022-10-16T08:26:03;96788.34;;;19.39;75.33
70954;BME280;58618;47.490;8.736;2022-10-16T08:28:53;96795.13;;;19.40;76.44
70954;BME280;58618;47.490;8.736;2022-10-16T08:31:40;96805.84;;;19.26;80.09
70954;BME280;58618;47.490;8.736;2022-10-16T08:34:27;96806.91;;;19.25;79.05
70954;BME280;58618;47.490;8.736;2022-10-16T08:37:15;96813.00;;;19.17;79.27
70954;BME280;58618;47.490;8.736;2022-10-16T08:40:07;96806.88;;;18.92;80.32
70954;BME280;58618;47.490;8.736;2022-10-16T08:43:14;96821.22;;;18.48;80.79
70954;BME280;58618;47.490;8.736;2022-10-16T08:46:26;96828.16;;;18.06;84.67
70954;BME280;58618;47.490;8.736;2022-10-16T08:49:21;96826.03;;;17.91;87.13
70954;BME280;58618;47.490;8.736;2022-10-16T08:52:11;96827.28;;;17.85;88.06
70954;BME280;58618;47.490;8.736;2022-10-16T08:54:59;96832.66;;;17.80;88.43
70954;BME280;58618;47.490;8.736;2022-10-16T08:57:47;96832.22;;;17.61;89.75
70954;BME280;58618;47.490;8.736;2022-10-16T09:00:34;96831.00;;;17.50;85.77
70954;BME280;58618;47.490;8.736;2022-10-16T09:03:31;96835.13;;;17.68;87.75
70954;BME280;58618;47.490;8.736;2022-10-16T09:06:30;96821.94;;;17.64;86.10
70954;BME280;58618;47.490;8.736;2022-10-16T09:09:32;96833.00;;;17.70;84.40
70954;BME280;58618;47.490;8.736;2022-10-16T09:12:35;96825.31;;;17.65;88.14
70954;BME280;58618;47.490;8.736;2022-10-16T09:15:29;96838.19;;;17.79;88.35
70954;BME280;58618;47.490;8.736;2022-10-16T09:18:25;96834.81;;;17.69;91.38
70954;BME280;58618;47.490;8.736;2022-10-16T09:21:18;96829.16;;;17.76;91.63
70954;BME280;58618;47.490;8.736;2022-10-16T09:24:11;96808.72;;;17.61;89.38
70954;BME280;58618;47.490;8.736;2022-10-16T09:27:02;96842.31;;;17.88;91.01
70954;BME280;58618;47.490;8.736;2022-10-16T09:29:50;96841.81;;;18.03;90.04
70954;BME280;58618;47.490;8.736;2022-10-16T09:32:38;96837.00;;;18.14;87.33
70954;BME280;58618;47.490;8.736;2022-10-16T09:35:32;96854.28;;;18.44;81.93
70954;BME280;58618;47.490;8.736;2022-10-16T09:38:25;96852.25;;;18.59;83.01
70954;BME280;58618;47.490;8.736;2022-10-16T09:41:18;96853.59;;;18.65;79.04
70954;BME280;58618;47.490;8.736;2022-10-16T09:44:17;96852.75;;;18.81;78.30
70954;BME280;58618;47.490;8.736;2022-10-16T09:47:12;96850.34;;;18.97;77.63
70954;BME280;58618;47.490;8.736;2022-10-16T09:50:03;96826.06;;;18.96;80.82
70954;BME280;58618;47.490;8.736;2022-10-16T09:53:05;96825.22;;;19.05;78.96
70954;BME280;58618;47.490;8.736;2022-10-16T09:55:53;96831.72;;;19.19;79.07
70954;BME280;58618;47.490;8.736;2022-10-16T09:58:50;96833.13;;;19.17;78.25
70954;BME280;58618;47.490;8.736;2022-10-16T10:01:39;96807.06;;;18.87;81.64
70954;BME280;58618;47.490;8.736;2022-10-16T10:04:38;96849.66;;;19.09;84.70
70954;BME280;58618;47.490;8.736;2022-10-16T10:07:27;96849.59;;;18.96;86.01
70954;BME280;58618;47.490;8.736;2022-10-16T10:10:21;96822.47;;;18.80;85.99
70954;BME280;58618;47.490;8.736;2022-10-16T10:13:17;96837.13;;;18.93;85.61
70954;BME280;58618;47.490;8.736;2022-10-16T10:16:06;96837.59;;;18.95;85.42
70954;BME280;58618;47.490;8.736;2022-10-16T10:18:58;96831.47;;;18.91;85.08
70954;BME280;58618;47.490;8.736;2022-10-16T10:21:46;96832.09;;;18.88;85.30
70954;BME280;58618;47.490;8.736;2022-10-16T10:24:33;96819.75;;;18.97;85.17
70954;BME280;58618;47.490;8.736;2022-10-16T10:27:24;96830.72;;;19.12;85.64
70954;BME280;58618;47.490;8.736;2022-10-16T10:30:21;96827.78;;;19.13;84.74
70954;BME280;58618;47.490;8.736;2022-10-16T10:33:17;96817.84;;;19.07;79.82
70954;BME280;58618;47.490;8.736;2022-10-16T10:36:14;96821.41;;;19.23;79.49
70954;BME280;58618;47.490;8.736;2022-10-16T10:39:07;96822.63;;;19.46;82.79
70954;BME280;58618;47.490;8.736;2022-10-16T10:42:16;96821.91;;;19.58;82.20
70954;BME280;58618;47.490;8.736;2022-10-16T10:45:18;96829.03;;;19.69;83.54
70954;BME280;58618;47.490;8.736;2022-10-16T10:48:32;96832.97;;;19.75;83.76
70954;BME280;58618;47.490;8.736;2022-10-16T10:51:33;96837.56;;;19.78;83.55
70954;BME280;58618;47.490;8.736;2022-10-16T10:54:28;96823.16;;;19.72;83.20
70954;BME280;58618;47.490;8.736;2022-10-16T10:57:22;96816.63;;;19.78;82.42
70954;BME280;58618;47.490;8.736;2022-10-16T11:00:21;96795.88;;;19.61;78.46
70954;BME280;58618;47.490;8.736;2022-10-16T11:03:27;96793.63;;;19.72;79.10
70954;BME280;58618;47.490;8.736;2022-10-16T11:06:20;96811.88;;;19.93;77.32
70954;BME280;58618;47.490;8.736;2022-10-16T11:09:13;96783.72;;;20.02;76.62
70954;BME280;58618;47.490;8.736;2022-10-16T11:12:06;96783.97;;;20.09;75.64
70954;BME280;58618;47.490;8.736;2022-10-16T11:15:02;96806.75;;;20.20;75.33
70954;BME280;58618;47.490;8.736;2022-10-16T11:17:57;96809.31;;;20.41;75.68
70954;BME280;58618;47.490;8.736;2022-10-16T11:20:50;96805.38;;;20.47;74.21
70954;BME280;58618;47.490;8.736;2022-10-16T11:23:42;96770.69;;;20.38;73.14
70954;BME280;58618;47.490;8.736;2022-10-16T11:26:33;96792.50;;;20.67;72.44
70954;BME280;58618;47.490;8.736;2022-10-16T11:29:25;96770.44;;;20.55;70.67
70954;BME280;58618;47.490;8.736;2022-10-16T11:32:20;96793.34;;;20.83;74.28
70954;BME280;58618;47.490;8.736;2022-10-16T11:35:17;96790.16;;;20.89;80.53
70954;BME280;58618;47.490;8.736;2022-10-16T11:38:12;96781.94;;;21.03;80.97
70954;BME280;58618;47.490;8.736;2022-10-16T11:41:06;96764.69;;;20.90;80.24
70954;BME280;58618;47.490;8.736;2022-10-16T11:44:09;96789.53;;;20.80;73.90
70954;BME280;58618;47.490;8.736;2022-10-16T11:47:09;96780.69;;;20.73;72.99
70954;BME280;58618;47.490;8.736;2022-10-16T11:50:02;96781.97;;;20.91;80.64
70954;BME280;58618;47.490;8.736;2022-10-16T11:52:55;96784.75;;;21.10;80.96
70954;BME280;58618;47.490;8.736;2022-10-16T11:55:46;96757.84;;;21.13;79.01
70954;BME280;58618;47.490;8.736;2022-10-16T11:58:37;96780.38;;;21.42;78.55
70954;BME280;58618;47.490;8.736;2022-10-16T12:01:31;96775.25;;;21.45;74.13
70954;BME280;58618;47.490;8.736;2022-10-16T12:04:24;96778.25;;;21.32;76.80
70954;BME280;58618;47.490;8.736;2022-10-16T12:07:17;96770.25;;;21.40;71.75
70954;BME280;58618;47.490;8.736;2022-10-16T12:10:19;96774.25;;;21.50;71.50
70954;BME280;58618;47.490;8.736;2022-10-16T12:13:29;96761.19;;;21.54;77.96
70954;BME280;58618;47.490;8.736;2022-10-16T12:16:22;96773.25;;;21.70;76.92
70954;BME280;58618;47.490;8.736;2022-10-16T12:19:12;96760.91;;;21.71;71.63
70954;BME280;58618;47.490;8.736;2022-10-16T12:22:01;96766.72;;;21.64;70.67
70954;BME280;58618;47.490;8.736;2022-10-16T12:24:52;96759.38;;;21.70;70.72
70954;BME280;58618;47.490;8.736;2022-10-16T12:27:41;96759.38;;;21.70;70.10
70954;BME280;58618;47.490;8.736;2022-10-16T12:30:32;96756.16;;;21.76;69.84
70954;BME280;58618;47.490;8.736;2022-10-16T12:33:22;96752.25;;;21.70;70.29
70954;BME280;58618;47.490;8.736;2022-10-16T12:36:14;96740.38;;;21.61;69.83
70954;BME280;58618;47.490;8.736;2022-10-16T12:39:02;96747.19;;;21.93;72.54
70954;BME280;58618;47.490;8.736;2022-10-16T12:42:00;96759.41;;;22.01;68.34
70954;BME280;58618;47.490;8.736;2022-10-16T12:44:50;96733.81;;;21.98;68.84
70954;BME280;58618;47.490;8.736;2022-10-16T12:47:47;96735.84;;;22.20;73.65
70954;BME280;58618;47.490;8.736;2022-10-16T12:50:36;96740.25;;;22.16;70.27
70954;BME280;58618;47.490;8.736;2022-10-16T12:53:26;96736.06;;;21.84;67.61
70954;BME280;58618;47.490;8.736;2022-10-16T12:56:19;96736.31;;;21.79;67.21
70954;BME280;58618;47.490;8.736;2022-10-16T12:59:19;96734.91;;;21.81;67.71
70954;BME280;58618;47.490;8.736;2022-10-16T13:05:44;96740.63;;;21.99;76.84
70954;BME280;58618;47.490;8.736;2022-10-16T13:08:53;96737.34;;;21.90;77.74
70954;BME280;58618;47.490;8.736;2022-10-16T13:11:55;96733.53;;;21.87;75.51
70954;BME280;58618;47.490;8.736;2022-10-16T13:18:12;96716.84;;;21.80;78.66
70954;BME280;58618;47.490;8.736;2022-10-16T13:21:10;96744.06;;;21.87;75.98
70954;BME280;58618;47.490;8.736;2022-10-16T13:24:13;96732.59;;;21.80;76.34
70954;BME280;58618;47.490;8.736;2022-10-16T13:27:09;96746.31;;;21.89;77.43
70954;BME280;58618;47.490;8.736;2022-10-16T13:30:02;96742.06;;;21.69;79.56
70954;BME280;58618;47.490;8.736;2022-10-16T13:33:00;96750.56;;;21.78;81.19
70954;BME280;58618;47.490;8.736;2022-10-16T13:35:49;96745.81;;;21.68;78.81
70954;BME280;58618;47.490;8.736;2022-10-16T13:38:38;96751.16;;;21.71;70.76
70954;BME280;58618;47.490;8.736;2022-10-16T13:41:26;96754.88;;;21.86;69.17
70954;BME280;58618;47.490;8.736;2022-10-16T13:44:15;96741.75;;;21.86;73.12
70954;BME280;58618;47.490;8.736;2022-10-16T13:47:05;96754.00;;;21.94;73.04
70954;BME280;58618;47.490;8.736;2022-10-16T13:49:59;96754.41;;;21.96;69.30
70954;BME280;58618;47.490;8.736;2022-10-16T13:52:47;96752.63;;;22.00;75.04
70954;BME280;58618;47.490;8.736;2022-10-16T13:55:36;96746.97;;;21.98;72.09
70954;BME280;58618;47.490;8.736;2022-10-16T13:58:24;96750.88;;;22.04;68.80
70954;BME280;58618;47.490;8.736;2022-10-16T14:01:16;96754.59;;;22.03;71.51
70954;BME280;58618;47.490;8.736;2022-10-16T14:04:07;96750.06;;;21.88;75.59
70954;BME280;58618;47.490;8.736;2022-10-16T14:06:55;96761.94;;;21.82;76.48
70954;BME280;58618;47.490;8.736;2022-10-16T14:09:42;96758.28;;;21.71;77.02
70954;BME280;58618;47.490;8.736;2022-10-16T14:12:36;96749.56;;;21.39;72.40
70954;BME280;58618;47.490;8.736;2022-10-16T14:15:24;96752.28;;;21.42;68.79
70954;BME280;58618;47.490;8.736;2022-10-16T14:18:18;96761.19;;;21.54;68.14
70954;BME280;58618;47.490;8.736;2022-10-16T14:21:07;96755.63;;;21.55;68.58
70954;BME280;58618;47.490;8.736;2022-10-16T14:23:59;96726.47;;;21.44;68.51
70954;BME280;58618;47.490;8.736;2022-10-16T14:26:58;96749.84;;;21.49;67.67
70954;BME280;58618;47.490;8.736;2022-10-16T14:29:47;96759.66;;;21.53;76.45
70954;BME280;58618;47.490;8.736;2022-10-16T14:32:34;96756.94;;;21.33;77.24
70954;BME280;58618;47.490;8.736;2022-10-16T14:35:24;96756.34;;;21.00;79.13
70954;BME280;58618;47.490;8.736;2022-10-16T14:38:18;96762.75;;;20.75;81.25
70954;BME280;58618;47.490;8.736;2022-10-16T14:41:07;96769.13;;;20.61;81.95
70954;BME280;58618;47.490;8.736;2022-10-16T14:43:55;96767.50;;;20.45;83.27
70954;BME280;58618;47.490;8.736;2022-10-16T14:46:45;96769.16;;;20.37;83.18
70954;BME280;58618;47.490;8.736;2022-10-16T14:49:33;96763.44;;;20.23;85.31
70954;BME280;58618;47.490;8.736;2022-10-16T14:52:21;96760.19;;;20.14;84.11
70954;BME280;58618;47.490;8.736;2022-10-16T14:55:09;96756.22;;;19.96;86.09
70954;BME280;58618;47.490;8.736;2022-10-16T14:57:56;96769.75;;;19.86;86.54
70954;BME280;58618;47.490;8.736;2022-10-16T15:00:44;96770.78;;;19.72;87.48
70954;BME280;58618;47.490;8.736;2022-10-16T15:03:33;96781.91;;;19.69;87.11
70954;BME280;58618;47.490;8.736;2022-10-16T15:06:21;96778.38;;;19.53;87.83